Saint Hilaire, Minnesota
Current Conditions -  °F | °C
As of 11:35 AM on Friday 31 Oct 2014 (Local Time) from KTVF Reporting Station
Clear Clear  
Wind Chill: -5°   Ceiling: Unl
Heat Index: -1°   Visibility: 10mi
Dew Point: -7°   Wind: 8mph
Humidity: 64%   Direction: 190°S
Pressure: 30.58"   Gusts: NA
Location:  48.01°N, 96.21°W
Report Text: KTVF 311635Z AUTO 19007KT 10SM CLR M01/M07 A3058 RMK AO1
Loading
Personal Weather Stations






























Interactive Weather Map
Tropical Storm Tracking
New forecast layout! Learn more

10-Day Weather Forecast

Advertisements
Track Severe Weather on mobile